<?xml version="1.0" encoding="UTF-8" standalone="no" ?>
<gpx xmlns="http://www.topografix.com/GPX/1/1" xmlns:xsi="http://www.w3.org/2001/XMLSchema-instance" xsi:schemaLocation="http://www.topografix.com/GPX/1/1 http://www.topografix.com/GPX/1/1/gpx.xsd" version="1.1" creator="VisuGPX - https://www.visugpx.com">
  <metadata>
    <name>83-M-Lorgues</name>
    <desc><![CDATA[83-M-Lorgues : Estello - circuit anchoïade]]></desc>
  </metadata>
  <trk>
    <name><![CDATA[2017-04-05-M-lorgues estello]]></name>
    <trkseg>
      <trkpt lat="43.48253" lon="6.34322">
        <ele>172.1</ele>
        <time>2017-04-05T11:42:14Z</time>
      </trkpt>
      <trkpt lat="43.48253" lon="6.34322">
        <ele>172.1</ele>
        <time>2017-04-05T11:42:15Z</time>
      </trkpt>
      <trkpt lat="43.48245" lon="6.34327">
        <ele>173.8</ele>
        <time>2017-04-05T11:43:24Z</time>
      </trkpt>
      <trkpt lat="43.48245" lon="6.34339">
        <ele>173</ele>
        <time>2017-04-05T11:45:57Z</time>
      </trkpt>
      <trkpt lat="43.48235" lon="6.34342">
        <ele>173.1</ele>
        <time>2017-04-05T11:46:14Z</time>
      </trkpt>
      <trkpt lat="43.48226" lon="6.34343">
        <ele>172.6</ele>
        <time>2017-04-05T11:48:06Z</time>
      </trkpt>
      <trkpt lat="43.48218" lon="6.34337">
        <ele>172.6</ele>
        <time>2017-04-05T11:48:20Z</time>
      </trkpt>
      <trkpt lat="43.48211" lon="6.34328">
        <ele>173.9</ele>
        <time>2017-04-05T11:48:33Z</time>
      </trkpt>
      <trkpt lat="43.48206" lon="6.34317">
        <ele>175.3</ele>
        <time>2017-04-05T11:48:47Z</time>
      </trkpt>
      <trkpt lat="43.48213" lon="6.34306">
        <ele>176.2</ele>
        <time>2017-04-05T11:48:57Z</time>
      </trkpt>
      <trkpt lat="43.48221" lon="6.34299">
        <ele>176.6</ele>
        <time>2017-04-05T11:49:07Z</time>
      </trkpt>
      <trkpt lat="43.48228" lon="6.3429">
        <ele>177</ele>
        <time>2017-04-05T11:49:17Z</time>
      </trkpt>
      <trkpt lat="43.48236" lon="6.34282">
        <ele>177.7</ele>
        <time>2017-04-05T11:49:27Z</time>
      </trkpt>
      <trkpt lat="43.48243" lon="6.34275">
        <ele>178.3</ele>
        <time>2017-04-05T11:49:37Z</time>
      </trkpt>
      <trkpt lat="43.48252" lon="6.3427">
        <ele>178.4</ele>
        <time>2017-04-05T11:49:46Z</time>
      </trkpt>
      <trkpt lat="43.4826" lon="6.34263">
        <ele>178.5</ele>
        <time>2017-04-05T11:49:54Z</time>
      </trkpt>
      <trkpt lat="43.48266" lon="6.34253">
        <ele>178.8</ele>
        <time>2017-04-05T11:50:05Z</time>
      </trkpt>
      <trkpt lat="43.48272" lon="6.34244">
        <ele>179.5</ele>
        <time>2017-04-05T11:50:12Z</time>
      </trkpt>
      <trkpt lat="43.48277" lon="6.34233">
        <ele>180.8</ele>
        <time>2017-04-05T11:50:22Z</time>
      </trkpt>
      <trkpt lat="43.48283" lon="6.34223">
        <ele>182.1</ele>
        <time>2017-04-05T11:50:34Z</time>
      </trkpt>
      <trkpt lat="43.48289" lon="6.34213">
        <ele>182.7</ele>
        <time>2017-04-05T11:50:44Z</time>
      </trkpt>
      <trkpt lat="43.48296" lon="6.34205">
        <ele>182.8</ele>
        <time>2017-04-05T11:50:51Z</time>
      </trkpt>
      <trkpt lat="43.48304" lon="6.34197">
        <ele>183.4</ele>
        <time>2017-04-05T11:50:59Z</time>
      </trkpt>
      <trkpt lat="43.48311" lon="6.34187">
        <ele>184.4</ele>
        <time>2017-04-05T11:51:09Z</time>
      </trkpt>
      <trkpt lat="43.48318" lon="6.34181">
        <ele>185.2</ele>
        <time>2017-04-05T11:51:17Z</time>
      </trkpt>
      <trkpt lat="43.48325" lon="6.34172">
        <ele>186.4</ele>
        <time>2017-04-05T11:51:27Z</time>
      </trkpt>
      <trkpt lat="43.48329" lon="6.3416">
        <ele>187.2</ele>
        <time>2017-04-05T11:51:38Z</time>
      </trkpt>
      <trkpt lat="43.48335" lon="6.3415">
        <ele>187.7</ele>
        <time>2017-04-05T11:51:47Z</time>
      </trkpt>
      <trkpt lat="43.48343" lon="6.34143">
        <ele>188.4</ele>
        <time>2017-04-05T11:52:00Z</time>
      </trkpt>
      <trkpt lat="43.48347" lon="6.34132">
        <ele>188.5</ele>
        <time>2017-04-05T11:52:12Z</time>
      </trkpt>
      <trkpt lat="43.48354" lon="6.34122">
        <ele>188.3</ele>
        <time>2017-04-05T11:52:22Z</time>
      </trkpt>
      <trkpt lat="43.48362" lon="6.34115">
        <ele>188.4</ele>
        <time>2017-04-05T11:52:29Z</time>
      </trkpt>
      <trkpt lat="43.48371" lon="6.34108">
        <ele>188.7</ele>
        <time>2017-04-05T11:52:37Z</time>
      </trkpt>
      <trkpt lat="43.48378" lon="6.34101">
        <ele>188.9</ele>
        <time>2017-04-05T11:52:46Z</time>
      </trkpt>
      <trkpt lat="43.48386" lon="6.34093">
        <ele>189.2</ele>
        <time>2017-04-05T11:52:56Z</time>
      </trkpt>
      <trkpt lat="43.48392" lon="6.34084">
        <ele>189.3</ele>
        <time>2017-04-05T11:53:05Z</time>
      </trkpt>
      <trkpt lat="43.48396" lon="6.34072">
        <ele>189.8</ele>
        <time>2017-04-05T11:53:14Z</time>
      </trkpt>
      <trkpt lat="43.484" lon="6.34059">
        <ele>191</ele>
        <time>2017-04-05T11:53:24Z</time>
      </trkpt>
      <trkpt lat="43.48402" lon="6.34047">
        <ele>192.5</ele>
        <time>2017-04-05T11:53:35Z</time>
      </trkpt>
      <trkpt lat="43.48403" lon="6.34033">
        <ele>194.3</ele>
        <time>2017-04-05T11:53:47Z</time>
      </trkpt>
      <trkpt lat="43.48405" lon="6.34021">
        <ele>194.7</ele>
        <time>2017-04-05T11:53:56Z</time>
      </trkpt>
      <trkpt lat="43.48409" lon="6.34008">
        <ele>195.3</ele>
        <time>2017-04-05T11:54:06Z</time>
      </trkpt>
      <trkpt lat="43.48409" lon="6.33995">
        <ele>195.8</ele>
        <time>2017-04-05T11:54:15Z</time>
      </trkpt>
      <trkpt lat="43.4841" lon="6.33981">
        <ele>196.2</ele>
        <time>2017-04-05T11:54:26Z</time>
      </trkpt>
      <trkpt lat="43.48412" lon="6.33968">
        <ele>195.8</ele>
        <time>2017-04-05T11:54:33Z</time>
      </trkpt>
      <trkpt lat="43.48409" lon="6.33955">
        <ele>195.7</ele>
        <time>2017-04-05T11:54:42Z</time>
      </trkpt>
      <trkpt lat="43.48405" lon="6.33942">
        <ele>195.5</ele>
        <time>2017-04-05T11:54:51Z</time>
      </trkpt>
      <trkpt lat="43.48404" lon="6.33929">
        <ele>195.7</ele>
        <time>2017-04-05T11:55:00Z</time>
      </trkpt>
      <trkpt lat="43.484" lon="6.33916">
        <ele>195.8</ele>
        <time>2017-04-05T11:55:09Z</time>
      </trkpt>
      <trkpt lat="43.48398" lon="6.33903">
        <ele>196</ele>
        <time>2017-04-05T11:55:18Z</time>
      </trkpt>
      <trkpt lat="43.48398" lon="6.3389">
        <ele>195.8</ele>
        <time>2017-04-05T11:55:28Z</time>
      </trkpt>
      <trkpt lat="43.48397" lon="6.33877">
        <ele>195.5</ele>
        <time>2017-04-05T11:55:37Z</time>
      </trkpt>
      <trkpt lat="43.48398" lon="6.33864">
        <ele>195</ele>
        <time>2017-04-05T11:55:45Z</time>
      </trkpt>
      <trkpt lat="43.4839" lon="6.33856">
        <ele>194.7</ele>
        <time>2017-04-05T11:55:57Z</time>
      </trkpt>
      <trkpt lat="43.48382" lon="6.3385">
        <ele>194.4</ele>
        <time>2017-04-05T11:56:04Z</time>
      </trkpt>
      <trkpt lat="43.48373" lon="6.33847">
        <ele>193.2</ele>
        <time>2017-04-05T11:56:13Z</time>
      </trkpt>
      <trkpt lat="43.48364" lon="6.33843">
        <ele>191.5</ele>
        <time>2017-04-05T11:56:24Z</time>
      </trkpt>
      <trkpt lat="43.48354" lon="6.33845">
        <ele>190.2</ele>
        <time>2017-04-05T11:56:32Z</time>
      </trkpt>
      <trkpt lat="43.48345" lon="6.33848">
        <ele>189.1</ele>
        <time>2017-04-05T11:56:40Z</time>
      </trkpt>
      <trkpt lat="43.48336" lon="6.33853">
        <ele>188.3</ele>
        <time>2017-04-05T11:56:50Z</time>
      </trkpt>
      <trkpt lat="43.48328" lon="6.33859">
        <ele>187.3</ele>
        <time>2017-04-05T11:57:00Z</time>
      </trkpt>
      <trkpt lat="43.4832" lon="6.33866">
        <ele>186.8</ele>
        <time>2017-04-05T11:57:10Z</time>
      </trkpt>
      <trkpt lat="43.48312" lon="6.33873">
        <ele>185.7</ele>
        <time>2017-04-05T11:57:25Z</time>
      </trkpt>
      <trkpt lat="43.48305" lon="6.33882">
        <ele>184.2</ele>
        <time>2017-04-05T11:57:36Z</time>
      </trkpt>
      <trkpt lat="43.48297" lon="6.33889">
        <ele>182.6</ele>
        <time>2017-04-05T11:57:48Z</time>
      </trkpt>
      <trkpt lat="43.48289" lon="6.33894">
        <ele>181.4</ele>
        <time>2017-04-05T11:57:58Z</time>
      </trkpt>
      <trkpt lat="43.4828" lon="6.339">
        <ele>179.8</ele>
        <time>2017-04-05T11:58:10Z</time>
      </trkpt>
      <trkpt lat="43.48271" lon="6.33905">
        <ele>179.3</ele>
        <time>2017-04-05T11:58:21Z</time>
      </trkpt>
      <trkpt lat="43.48262" lon="6.33911">
        <ele>178.4</ele>
        <time>2017-04-05T11:58:31Z</time>
      </trkpt>
      <trkpt lat="43.48253" lon="6.33915">
        <ele>177.8</ele>
        <time>2017-04-05T11:58:41Z</time>
      </trkpt>
      <trkpt lat="43.48244" lon="6.33919">
        <ele>177.1</ele>
        <time>2017-04-05T11:58:52Z</time>
      </trkpt>
      <trkpt lat="43.48235" lon="6.33921">
        <ele>176.9</ele>
        <time>2017-04-05T11:59:02Z</time>
      </trkpt>
      <trkpt lat="43.48228" lon="6.33912">
        <ele>176.8</ele>
        <time>2017-04-05T11:59:15Z</time>
      </trkpt>
      <trkpt lat="43.4822" lon="6.33903">
        <ele>176.9</ele>
        <time>2017-04-05T11:59:24Z</time>
      </trkpt>
      <trkpt lat="43.48213" lon="6.33894">
        <ele>177.1</ele>
        <time>2017-04-05T11:59:33Z</time>
      </trkpt>
      <trkpt lat="43.48222" lon="6.33895">
        <ele>174.2</ele>
        <time>2017-04-05T12:00:17Z</time>
      </trkpt>
      <trkpt lat="43.48227" lon="6.33883">
        <ele>171.6</ele>
        <time>2017-04-05T12:00:40Z</time>
      </trkpt>
      <trkpt lat="43.48229" lon="6.3387">
        <ele>168.9</ele>
        <time>2017-04-05T12:00:54Z</time>
      </trkpt>
      <trkpt lat="43.48233" lon="6.33858">
        <ele>166.9</ele>
        <time>2017-04-05T12:01:05Z</time>
      </trkpt>
      <trkpt lat="43.48232" lon="6.33845">
        <ele>165.9</ele>
        <time>2017-04-05T12:01:16Z</time>
      </trkpt>
      <trkpt lat="43.48229" lon="6.33833">
        <ele>164.9</ele>
        <time>2017-04-05T12:01:27Z</time>
      </trkpt>
      <trkpt lat="43.48223" lon="6.33822">
        <ele>163.8</ele>
        <time>2017-04-05T12:01:36Z</time>
      </trkpt>
      <trkpt lat="43.48216" lon="6.33813">
        <ele>162.6</ele>
        <time>2017-04-05T12:01:47Z</time>
      </trkpt>
      <trkpt lat="43.48208" lon="6.33806">
        <ele>161.2</ele>
        <time>2017-04-05T12:01:57Z</time>
      </trkpt>
      <trkpt lat="43.48198" lon="6.33801">
        <ele>159.7</ele>
        <time>2017-04-05T12:02:08Z</time>
      </trkpt>
      <trkpt lat="43.48201" lon="6.33789">
        <ele>155.2</ele>
        <time>2017-04-05T12:02:44Z</time>
      </trkpt>
      <trkpt lat="43.48211" lon="6.33788">
        <ele>153.2</ele>
        <time>2017-04-05T12:02:59Z</time>
      </trkpt>
      <trkpt lat="43.4822" lon="6.33784">
        <ele>152</ele>
        <time>2017-04-05T12:03:09Z</time>
      </trkpt>
      <trkpt lat="43.48226" lon="6.33774">
        <ele>150.4</ele>
        <time>2017-04-05T12:03:26Z</time>
      </trkpt>
      <trkpt lat="43.48218" lon="6.33766">
        <ele>147.8</ele>
        <time>2017-04-05T12:03:46Z</time>
      </trkpt>
      <trkpt lat="43.48216" lon="6.33754">
        <ele>145.9</ele>
        <time>2017-04-05T12:04:01Z</time>
      </trkpt>
      <trkpt lat="43.48212" lon="6.33741">
        <ele>144</ele>
        <time>2017-04-05T12:04:10Z</time>
      </trkpt>
      <trkpt lat="43.48212" lon="6.33728">
        <ele>142.9</ele>
        <time>2017-04-05T12:04:19Z</time>
      </trkpt>
      <trkpt lat="43.48214" lon="6.33715">
        <ele>141.7</ele>
        <time>2017-04-05T12:04:29Z</time>
      </trkpt>
      <trkpt lat="43.48216" lon="6.33702">
        <ele>141.6</ele>
        <time>2017-04-05T12:04:39Z</time>
      </trkpt>
      <trkpt lat="43.48217" lon="6.33688">
        <ele>141.4</ele>
        <time>2017-04-05T12:04:47Z</time>
      </trkpt>
      <trkpt lat="43.48219" lon="6.33675">
        <ele>140.9</ele>
        <time>2017-04-05T12:04:55Z</time>
      </trkpt>
      <trkpt lat="43.48222" lon="6.33662">
        <ele>140.9</ele>
        <time>2017-04-05T12:05:03Z</time>
      </trkpt>
      <trkpt lat="43.48225" lon="6.33649">
        <ele>140.6</ele>
        <time>2017-04-05T12:05:11Z</time>
      </trkpt>
      <trkpt lat="43.48229" lon="6.33637">
        <ele>140.5</ele>
        <time>2017-04-05T12:05:20Z</time>
      </trkpt>
      <trkpt lat="43.48233" lon="6.33625">
        <ele>140</ele>
        <time>2017-04-05T12:05:31Z</time>
      </trkpt>
      <trkpt lat="43.48239" lon="6.33615">
        <ele>139.7</ele>
        <time>2017-04-05T12:05:43Z</time>
      </trkpt>
      <trkpt lat="43.48243" lon="6.33603">
        <ele>139.9</ele>
        <time>2017-04-05T12:06:01Z</time>
      </trkpt>
      <trkpt lat="43.48251" lon="6.33598">
        <ele>139.5</ele>
        <time>2017-04-05T12:06:45Z</time>
      </trkpt>
      <trkpt lat="43.48245" lon="6.33589">
        <ele>140</ele>
        <time>2017-04-05T12:07:49Z</time>
      </trkpt>
      <trkpt lat="43.48253" lon="6.33582">
        <ele>140.3</ele>
        <time>2017-04-05T12:08:43Z</time>
      </trkpt>
      <trkpt lat="43.48258" lon="6.33571">
        <ele>140.6</ele>
        <time>2017-04-05T12:08:55Z</time>
      </trkpt>
      <trkpt lat="43.48266" lon="6.33564">
        <ele>140.8</ele>
        <time>2017-04-05T12:09:05Z</time>
      </trkpt>
      <trkpt lat="43.48273" lon="6.33555">
        <ele>141.1</ele>
        <time>2017-04-05T12:09:15Z</time>
      </trkpt>
      <trkpt lat="43.48281" lon="6.3355">
        <ele>141.2</ele>
        <time>2017-04-05T12:09:26Z</time>
      </trkpt>
      <trkpt lat="43.4829" lon="6.33546">
        <ele>141.3</ele>
        <time>2017-04-05T12:09:36Z</time>
      </trkpt>
      <trkpt lat="43.483" lon="6.33543">
        <ele>141.3</ele>
        <time>2017-04-05T12:09:48Z</time>
      </trkpt>
      <trkpt lat="43.48309" lon="6.3354">
        <ele>141.6</ele>
        <time>2017-04-05T12:09:58Z</time>
      </trkpt>
      <trkpt lat="43.48318" lon="6.33537">
        <ele>142.2</ele>
        <time>2017-04-05T12:10:08Z</time>
      </trkpt>
      <trkpt lat="43.48327" lon="6.33534">
        <ele>142.5</ele>
        <time>2017-04-05T12:10:20Z</time>
      </trkpt>
      <trkpt lat="43.48336" lon="6.33535">
        <ele>142.8</ele>
        <time>2017-04-05T12:10:28Z</time>
      </trkpt>
      <trkpt lat="43.48346" lon="6.33536">
        <ele>142.9</ele>
        <time>2017-04-05T12:10:42Z</time>
      </trkpt>
      <trkpt lat="43.48354" lon="6.33543">
        <ele>143.2</ele>
        <time>2017-04-05T12:10:52Z</time>
      </trkpt>
      <trkpt lat="43.48361" lon="6.33551">
        <ele>143.7</ele>
        <time>2017-04-05T12:11:00Z</time>
      </trkpt>
      <trkpt lat="43.48369" lon="6.3356">
        <ele>144.3</ele>
        <time>2017-04-05T12:11:09Z</time>
      </trkpt>
      <trkpt lat="43.48376" lon="6.33569">
        <ele>144.6</ele>
        <time>2017-04-05T12:11:18Z</time>
      </trkpt>
      <trkpt lat="43.48382" lon="6.33578">
        <ele>144.5</ele>
        <time>2017-04-05T12:11:26Z</time>
      </trkpt>
      <trkpt lat="43.48388" lon="6.33587">
        <ele>144.9</ele>
        <time>2017-04-05T12:11:35Z</time>
      </trkpt>
      <trkpt lat="43.48395" lon="6.33597">
        <ele>145.4</ele>
        <time>2017-04-05T12:11:44Z</time>
      </trkpt>
      <trkpt lat="43.48402" lon="6.33607">
        <ele>146</ele>
        <time>2017-04-05T12:11:53Z</time>
      </trkpt>
      <trkpt lat="43.48408" lon="6.33616">
        <ele>146.1</ele>
        <time>2017-04-05T12:12:04Z</time>
      </trkpt>
      <trkpt lat="43.48413" lon="6.33628">
        <ele>146.5</ele>
        <time>2017-04-05T12:12:13Z</time>
      </trkpt>
      <trkpt lat="43.48418" lon="6.33639">
        <ele>146.9</ele>
        <time>2017-04-05T12:12:21Z</time>
      </trkpt>
      <trkpt lat="43.48425" lon="6.33647">
        <ele>147.1</ele>
        <time>2017-04-05T12:12:30Z</time>
      </trkpt>
      <trkpt lat="43.48432" lon="6.33657">
        <ele>147.1</ele>
        <time>2017-04-05T12:12:38Z</time>
      </trkpt>
      <trkpt lat="43.48438" lon="6.33666">
        <ele>147.6</ele>
        <time>2017-04-05T12:12:46Z</time>
      </trkpt>
      <trkpt lat="43.48446" lon="6.33676">
        <ele>147.4</ele>
        <time>2017-04-05T12:12:55Z</time>
      </trkpt>
      <trkpt lat="43.48453" lon="6.33684">
        <ele>147.6</ele>
        <time>2017-04-05T12:13:03Z</time>
      </trkpt>
      <trkpt lat="43.48461" lon="6.33692">
        <ele>148</ele>
        <time>2017-04-05T12:13:13Z</time>
      </trkpt>
      <trkpt lat="43.4847" lon="6.33696">
        <ele>148</ele>
        <time>2017-04-05T12:13:23Z</time>
      </trkpt>
      <trkpt lat="43.48479" lon="6.33698">
        <ele>148.4</ele>
        <time>2017-04-05T12:13:35Z</time>
      </trkpt>
      <trkpt lat="43.48489" lon="6.33702">
        <ele>148.5</ele>
        <time>2017-04-05T12:13:46Z</time>
      </trkpt>
      <trkpt lat="43.48498" lon="6.33704">
        <ele>148.3</ele>
        <time>2017-04-05T12:13:56Z</time>
      </trkpt>
      <trkpt lat="43.48508" lon="6.33707">
        <ele>148.2</ele>
        <time>2017-04-05T12:14:05Z</time>
      </trkpt>
      <trkpt lat="43.48516" lon="6.33714">
        <ele>148.2</ele>
        <time>2017-04-05T12:14:15Z</time>
      </trkpt>
      <trkpt lat="43.48525" lon="6.33721">
        <ele>148.6</ele>
        <time>2017-04-05T12:14:24Z</time>
      </trkpt>
      <trkpt lat="43.48532" lon="6.3373">
        <ele>149.2</ele>
        <time>2017-04-05T12:14:33Z</time>
      </trkpt>
      <trkpt lat="43.48538" lon="6.3374">
        <ele>149.8</ele>
        <time>2017-04-05T12:14:41Z</time>
      </trkpt>
      <trkpt lat="43.48546" lon="6.33747">
        <ele>149.8</ele>
        <time>2017-04-05T12:14:49Z</time>
      </trkpt>
      <trkpt lat="43.4855" lon="6.33736">
        <ele>150.2</ele>
        <time>2017-04-05T12:15:01Z</time>
      </trkpt>
      <trkpt lat="43.48559" lon="6.33733">
        <ele>149.7</ele>
        <time>2017-04-05T12:15:26Z</time>
      </trkpt>
      <trkpt lat="43.48568" lon="6.3373">
        <ele>150</ele>
        <time>2017-04-05T12:15:43Z</time>
      </trkpt>
      <trkpt lat="43.48576" lon="6.33724">
        <ele>150.5</ele>
        <time>2017-04-05T12:16:26Z</time>
      </trkpt>
      <trkpt lat="43.48585" lon="6.3372">
        <ele>150.4</ele>
        <time>2017-04-05T12:17:02Z</time>
      </trkpt>
      <trkpt lat="43.48595" lon="6.33723">
        <ele>150.8</ele>
        <time>2017-04-05T12:17:29Z</time>
      </trkpt>
      <trkpt lat="43.48603" lon="6.33728">
        <ele>151.1</ele>
        <time>2017-04-05T12:17:40Z</time>
      </trkpt>
      <trkpt lat="43.48613" lon="6.3373">
        <ele>151</ele>
        <time>2017-04-05T12:17:51Z</time>
      </trkpt>
      <trkpt lat="43.48622" lon="6.33733">
        <ele>151.1</ele>
        <time>2017-04-05T12:18:03Z</time>
      </trkpt>
      <trkpt lat="43.48631" lon="6.33734">
        <ele>151.2</ele>
        <time>2017-04-05T12:18:14Z</time>
      </trkpt>
      <trkpt lat="43.48641" lon="6.33735">
        <ele>151.5</ele>
        <time>2017-04-05T12:18:24Z</time>
      </trkpt>
      <trkpt lat="43.48651" lon="6.33736">
        <ele>151.7</ele>
        <time>2017-04-05T12:18:35Z</time>
      </trkpt>
      <trkpt lat="43.4866" lon="6.33733">
        <ele>152.4</ele>
        <time>2017-04-05T12:18:47Z</time>
      </trkpt>
      <trkpt lat="43.48669" lon="6.3373">
        <ele>151.8</ele>
        <time>2017-04-05T12:18:57Z</time>
      </trkpt>
      <trkpt lat="43.48678" lon="6.33725">
        <ele>152.3</ele>
        <time>2017-04-05T12:19:08Z</time>
      </trkpt>
      <trkpt lat="43.48683" lon="6.33715">
        <ele>153</ele>
        <time>2017-04-05T12:19:25Z</time>
      </trkpt>
      <trkpt lat="43.48686" lon="6.33702">
        <ele>153.9</ele>
        <time>2017-04-05T12:19:36Z</time>
      </trkpt>
      <trkpt lat="43.4869" lon="6.33691">
        <ele>155.6</ele>
        <time>2017-04-05T12:19:48Z</time>
      </trkpt>
      <trkpt lat="43.48696" lon="6.3368">
        <ele>156.8</ele>
        <time>2017-04-05T12:19:57Z</time>
      </trkpt>
      <trkpt lat="43.48699" lon="6.33668">
        <ele>157.7</ele>
        <time>2017-04-05T12:20:05Z</time>
      </trkpt>
      <trkpt lat="43.48703" lon="6.33655">
        <ele>158.2</ele>
        <time>2017-04-05T12:20:17Z</time>
      </trkpt>
      <trkpt lat="43.48707" lon="6.33644">
        <ele>158.2</ele>
        <time>2017-04-05T12:20:28Z</time>
      </trkpt>
      <trkpt lat="43.4871" lon="6.33631">
        <ele>158.7</ele>
        <time>2017-04-05T12:20:39Z</time>
      </trkpt>
      <trkpt lat="43.48713" lon="6.33618">
        <ele>158.9</ele>
        <time>2017-04-05T12:20:49Z</time>
      </trkpt>
      <trkpt lat="43.48717" lon="6.33606">
        <ele>158.8</ele>
        <time>2017-04-05T12:20:55Z</time>
      </trkpt>
      <trkpt lat="43.48722" lon="6.33594">
        <ele>159.3</ele>
        <time>2017-04-05T12:21:03Z</time>
      </trkpt>
      <trkpt lat="43.48727" lon="6.33583">
        <ele>159.5</ele>
        <time>2017-04-05T12:21:12Z</time>
      </trkpt>
      <trkpt lat="43.48735" lon="6.33576">
        <ele>160.4</ele>
        <time>2017-04-05T12:21:24Z</time>
      </trkpt>
      <trkpt lat="43.48745" lon="6.33574">
        <ele>160.6</ele>
        <time>2017-04-05T12:21:37Z</time>
      </trkpt>
      <trkpt lat="43.48754" lon="6.33573">
        <ele>160.3</ele>
        <time>2017-04-05T12:21:53Z</time>
      </trkpt>
      <trkpt lat="43.48763" lon="6.33569">
        <ele>159.3</ele>
        <time>2017-04-05T12:22:04Z</time>
      </trkpt>
      <trkpt lat="43.48772" lon="6.33568">
        <ele>158.6</ele>
        <time>2017-04-05T12:22:16Z</time>
      </trkpt>
      <trkpt lat="43.48781" lon="6.33563">
        <ele>158.5</ele>
        <time>2017-04-05T12:22:24Z</time>
      </trkpt>
      <trkpt lat="43.4879" lon="6.33558">
        <ele>158.8</ele>
        <time>2017-04-05T12:22:32Z</time>
      </trkpt>
      <trkpt lat="43.48798" lon="6.33552">
        <ele>158.9</ele>
        <time>2017-04-05T12:22:39Z</time>
      </trkpt>
      <trkpt lat="43.48806" lon="6.33545">
        <ele>159.5</ele>
        <time>2017-04-05T12:22:47Z</time>
      </trkpt>
      <trkpt lat="43.48815" lon="6.33539">
        <ele>159.5</ele>
        <time>2017-04-05T12:22:55Z</time>
      </trkpt>
      <trkpt lat="43.48824" lon="6.33532">
        <ele>159.3</ele>
        <time>2017-04-05T12:23:05Z</time>
      </trkpt>
      <trkpt lat="43.48832" lon="6.33527">
        <ele>159.4</ele>
        <time>2017-04-05T12:23:12Z</time>
      </trkpt>
      <trkpt lat="43.48841" lon="6.33521">
        <ele>159.4</ele>
        <time>2017-04-05T12:23:21Z</time>
      </trkpt>
      <trkpt lat="43.48849" lon="6.33515">
        <ele>159</ele>
        <time>2017-04-05T12:23:30Z</time>
      </trkpt>
      <trkpt lat="43.48858" lon="6.33509">
        <ele>159.1</ele>
        <time>2017-04-05T12:23:41Z</time>
      </trkpt>
      <trkpt lat="43.48867" lon="6.33503">
        <ele>159.3</ele>
        <time>2017-04-05T12:23:53Z</time>
      </trkpt>
      <trkpt lat="43.48876" lon="6.33498">
        <ele>159.4</ele>
        <time>2017-04-05T12:24:01Z</time>
      </trkpt>
      <trkpt lat="43.48885" lon="6.33492">
        <ele>159.7</ele>
        <time>2017-04-05T12:24:10Z</time>
      </trkpt>
      <trkpt lat="43.48895" lon="6.3349">
        <ele>160.5</ele>
        <time>2017-04-05T12:24:19Z</time>
      </trkpt>
      <trkpt lat="43.48905" lon="6.33489">
        <ele>161</ele>
        <time>2017-04-05T12:24:29Z</time>
      </trkpt>
      <trkpt lat="43.48914" lon="6.33487">
        <ele>161.7</ele>
        <time>2017-04-05T12:24:40Z</time>
      </trkpt>
      <trkpt lat="43.48923" lon="6.33483">
        <ele>162.3</ele>
        <time>2017-04-05T12:24:48Z</time>
      </trkpt>
      <trkpt lat="43.48932" lon="6.33477">
        <ele>163.1</ele>
        <time>2017-04-05T12:24:57Z</time>
      </trkpt>
      <trkpt lat="43.48941" lon="6.33472">
        <ele>163.6</ele>
        <time>2017-04-05T12:25:07Z</time>
      </trkpt>
      <trkpt lat="43.4895" lon="6.33466">
        <ele>163.8</ele>
        <time>2017-04-05T12:25:16Z</time>
      </trkpt>
      <trkpt lat="43.48959" lon="6.33461">
        <ele>163.9</ele>
        <time>2017-04-05T12:25:24Z</time>
      </trkpt>
      <trkpt lat="43.48968" lon="6.33456">
        <ele>163.9</ele>
        <time>2017-04-05T12:25:32Z</time>
      </trkpt>
      <trkpt lat="43.48977" lon="6.33455">
        <ele>163.8</ele>
        <time>2017-04-05T12:25:40Z</time>
      </trkpt>
      <trkpt lat="43.48984" lon="6.33447">
        <ele>165</ele>
        <time>2017-04-05T12:26:05Z</time>
      </trkpt>
      <trkpt lat="43.48989" lon="6.33436">
        <ele>165.3</ele>
        <time>2017-04-05T12:26:20Z</time>
      </trkpt>
      <trkpt lat="43.48993" lon="6.33424">
        <ele>166.4</ele>
        <time>2017-04-05T12:26:39Z</time>
      </trkpt>
      <trkpt lat="43.48996" lon="6.33412">
        <ele>166.9</ele>
        <time>2017-04-05T12:26:50Z</time>
      </trkpt>
      <trkpt lat="43.49003" lon="6.33404">
        <ele>167.1</ele>
        <time>2017-04-05T12:26:57Z</time>
      </trkpt>
      <trkpt lat="43.49007" lon="6.33392">
        <ele>167.6</ele>
        <time>2017-04-05T12:27:09Z</time>
      </trkpt>
      <trkpt lat="43.49011" lon="6.3338">
        <ele>168.5</ele>
        <time>2017-04-05T12:27:23Z</time>
      </trkpt>
      <trkpt lat="43.49015" lon="6.33369">
        <ele>169.5</ele>
        <time>2017-04-05T12:27:36Z</time>
      </trkpt>
      <trkpt lat="43.49022" lon="6.33361">
        <ele>170.6</ele>
        <time>2017-04-05T12:27:47Z</time>
      </trkpt>
      <trkpt lat="43.49028" lon="6.33351">
        <ele>170.7</ele>
        <time>2017-04-05T12:28:02Z</time>
      </trkpt>
      <trkpt lat="43.49036" lon="6.33344">
        <ele>172</ele>
        <time>2017-04-05T12:28:24Z</time>
      </trkpt>
      <trkpt lat="43.49045" lon="6.33343">
        <ele>173.6</ele>
        <time>2017-04-05T12:28:42Z</time>
      </trkpt>
      <trkpt lat="43.49053" lon="6.33347">
        <ele>175.4</ele>
        <time>2017-04-05T12:28:58Z</time>
      </trkpt>
      <trkpt lat="43.49062" lon="6.33352">
        <ele>178.4</ele>
        <time>2017-04-05T12:29:18Z</time>
      </trkpt>
      <trkpt lat="43.4907" lon="6.33356">
        <ele>179.8</ele>
        <time>2017-04-05T12:29:32Z</time>
      </trkpt>
      <trkpt lat="43.49079" lon="6.3336">
        <ele>180.9</ele>
        <time>2017-04-05T12:29:46Z</time>
      </trkpt>
      <trkpt lat="43.49088" lon="6.33365">
        <ele>182.5</ele>
        <time>2017-04-05T12:30:04Z</time>
      </trkpt>
      <trkpt lat="43.49097" lon="6.33368">
        <ele>183.9</ele>
        <time>2017-04-05T12:30:20Z</time>
      </trkpt>
      <trkpt lat="43.49105" lon="6.33373">
        <ele>184.7</ele>
        <time>2017-04-05T12:30:35Z</time>
      </trkpt>
      <trkpt lat="43.49114" lon="6.33378">
        <ele>184.9</ele>
        <time>2017-04-05T12:30:46Z</time>
      </trkpt>
      <trkpt lat="43.49123" lon="6.33383">
        <ele>185</ele>
        <time>2017-04-05T12:30:59Z</time>
      </trkpt>
      <trkpt lat="43.49131" lon="6.33388">
        <ele>185.3</ele>
        <time>2017-04-05T12:31:12Z</time>
      </trkpt>
      <trkpt lat="43.4914" lon="6.33391">
        <ele>184.9</ele>
        <time>2017-04-05T12:31:22Z</time>
      </trkpt>
      <trkpt lat="43.49149" lon="6.33394">
        <ele>184.1</ele>
        <time>2017-04-05T12:31:37Z</time>
      </trkpt>
      <trkpt lat="43.49158" lon="6.33395">
        <ele>183</ele>
        <time>2017-04-05T12:31:52Z</time>
      </trkpt>
      <trkpt lat="43.49168" lon="6.33396">
        <ele>181.6</ele>
        <time>2017-04-05T12:32:10Z</time>
      </trkpt>
      <trkpt lat="43.49177" lon="6.33392">
        <ele>180.6</ele>
        <time>2017-04-05T12:32:37Z</time>
      </trkpt>
      <trkpt lat="43.49181" lon="6.33381">
        <ele>180.2</ele>
        <time>2017-04-05T12:32:48Z</time>
      </trkpt>
      <trkpt lat="43.49187" lon="6.33371">
        <ele>180.3</ele>
        <time>2017-04-05T12:32:57Z</time>
      </trkpt>
      <trkpt lat="43.49194" lon="6.33362">
        <ele>180.6</ele>
        <time>2017-04-05T12:33:05Z</time>
      </trkpt>
      <trkpt lat="43.492" lon="6.33352">
        <ele>180.8</ele>
        <time>2017-04-05T12:33:14Z</time>
      </trkpt>
      <trkpt lat="43.49204" lon="6.3334">
        <ele>181</ele>
        <time>2017-04-05T12:33:23Z</time>
      </trkpt>
      <trkpt lat="43.49206" lon="6.33327">
        <ele>182.1</ele>
        <time>2017-04-05T12:33:33Z</time>
      </trkpt>
      <trkpt lat="43.49209" lon="6.33315">
        <ele>182.9</ele>
        <time>2017-04-05T12:33:42Z</time>
      </trkpt>
      <trkpt lat="43.49213" lon="6.33303">
        <ele>184.2</ele>
        <time>2017-04-05T12:33:55Z</time>
      </trkpt>
      <trkpt lat="43.49216" lon="6.3329">
        <ele>184.6</ele>
        <time>2017-04-05T12:34:06Z</time>
      </trkpt>
      <trkpt lat="43.49218" lon="6.33277">
        <ele>184.6</ele>
        <time>2017-04-05T12:34:15Z</time>
      </trkpt>
      <trkpt lat="43.4922" lon="6.33264">
        <ele>185.3</ele>
        <time>2017-04-05T12:34:25Z</time>
      </trkpt>
      <trkpt lat="43.4922" lon="6.33251">
        <ele>185.6</ele>
        <time>2017-04-05T12:34:33Z</time>
      </trkpt>
      <trkpt lat="43.49218" lon="6.33238">
        <ele>185.5</ele>
        <time>2017-04-05T12:34:41Z</time>
      </trkpt>
      <trkpt lat="43.4922" lon="6.33225">
        <ele>186.2</ele>
        <time>2017-04-05T12:34:52Z</time>
      </trkpt>
      <trkpt lat="43.4922" lon="6.33212">
        <ele>187.1</ele>
        <time>2017-04-05T12:35:08Z</time>
      </trkpt>
      <trkpt lat="43.49221" lon="6.33199">
        <ele>188.3</ele>
        <time>2017-04-05T12:35:21Z</time>
      </trkpt>
      <trkpt lat="43.49222" lon="6.33186">
        <ele>189.1</ele>
        <time>2017-04-05T12:35:33Z</time>
      </trkpt>
      <trkpt lat="43.49223" lon="6.33173">
        <ele>189.2</ele>
        <time>2017-04-05T12:35:42Z</time>
      </trkpt>
      <trkpt lat="43.49226" lon="6.3316">
        <ele>189.3</ele>
        <time>2017-04-05T12:35:52Z</time>
      </trkpt>
      <trkpt lat="43.49229" lon="6.33148">
        <ele>189.9</ele>
        <time>2017-04-05T12:36:01Z</time>
      </trkpt>
      <trkpt lat="43.49231" lon="6.33136">
        <ele>191</ele>
        <time>2017-04-05T12:36:13Z</time>
      </trkpt>
      <trkpt lat="43.49235" lon="6.33123">
        <ele>191.4</ele>
        <time>2017-04-05T12:36:23Z</time>
      </trkpt>
      <trkpt lat="43.4924" lon="6.33111">
        <ele>192.1</ele>
        <time>2017-04-05T12:36:32Z</time>
      </trkpt>
      <trkpt lat="43.49244" lon="6.33098">
        <ele>193</ele>
        <time>2017-04-05T12:36:42Z</time>
      </trkpt>
      <trkpt lat="43.49247" lon="6.33086">
        <ele>193.3</ele>
        <time>2017-04-05T12:36:51Z</time>
      </trkpt>
      <trkpt lat="43.49249" lon="6.33073">
        <ele>193.7</ele>
        <time>2017-04-05T12:36:59Z</time>
      </trkpt>
      <trkpt lat="43.49254" lon="6.33061">
        <ele>194</ele>
        <time>2017-04-05T12:37:07Z</time>
      </trkpt>
      <trkpt lat="43.49258" lon="6.33049">
        <ele>194.3</ele>
        <time>2017-04-05T12:37:14Z</time>
      </trkpt>
      <trkpt lat="43.4926" lon="6.33036">
        <ele>194.8</ele>
        <time>2017-04-05T12:37:22Z</time>
      </trkpt>
      <trkpt lat="43.49261" lon="6.33023">
        <ele>195.2</ele>
        <time>2017-04-05T12:37:32Z</time>
      </trkpt>
      <trkpt lat="43.49262" lon="6.33011">
        <ele>195.6</ele>
        <time>2017-04-05T12:37:39Z</time>
      </trkpt>
      <trkpt lat="43.49262" lon="6.32997">
        <ele>195.8</ele>
        <time>2017-04-05T12:37:49Z</time>
      </trkpt>
      <trkpt lat="43.49263" lon="6.32984">
        <ele>196.1</ele>
        <time>2017-04-05T12:37:58Z</time>
      </trkpt>
      <trkpt lat="43.49262" lon="6.32972">
        <ele>196.6</ele>
        <time>2017-04-05T12:38:07Z</time>
      </trkpt>
      <trkpt lat="43.49261" lon="6.32958">
        <ele>196.4</ele>
        <time>2017-04-05T12:38:17Z</time>
      </trkpt>
      <trkpt lat="43.4926" lon="6.32946">
        <ele>196</ele>
        <time>2017-04-05T12:38:27Z</time>
      </trkpt>
      <trkpt lat="43.4926" lon="6.32933">
        <ele>195.1</ele>
        <time>2017-04-05T12:38:36Z</time>
      </trkpt>
      <trkpt lat="43.49259" lon="6.32921">
        <ele>195</ele>
        <time>2017-04-05T12:38:46Z</time>
      </trkpt>
      <trkpt lat="43.4926" lon="6.32908">
        <ele>194</ele>
        <time>2017-04-05T12:38:57Z</time>
      </trkpt>
      <trkpt lat="43.49263" lon="6.32896">
        <ele>193.5</ele>
        <time>2017-04-05T12:39:17Z</time>
      </trkpt>
      <trkpt lat="43.49256" lon="6.32888">
        <ele>192.4</ele>
        <time>2017-04-05T12:41:05Z</time>
      </trkpt>
      <trkpt lat="43.49246" lon="6.32888">
        <ele>192.3</ele>
        <time>2017-04-05T12:41:15Z</time>
      </trkpt>
      <trkpt lat="43.49237" lon="6.32889">
        <ele>192.2</ele>
        <time>2017-04-05T12:41:24Z</time>
      </trkpt>
      <trkpt lat="43.49227" lon="6.32887">
        <ele>191.4</ele>
        <time>2017-04-05T12:41:33Z</time>
      </trkpt>
      <trkpt lat="43.49218" lon="6.32886">
        <ele>191</ele>
        <time>2017-04-05T12:41:42Z</time>
      </trkpt>
      <trkpt lat="43.49209" lon="6.32882">
        <ele>190.5</ele>
        <time>2017-04-05T12:41:51Z</time>
      </trkpt>
      <trkpt lat="43.49199" lon="6.32882">
        <ele>190</ele>
        <time>2017-04-05T12:42:01Z</time>
      </trkpt>
      <trkpt lat="43.4919" lon="6.32879">
        <ele>189.6</ele>
        <time>2017-04-05T12:42:10Z</time>
      </trkpt>
      <trkpt lat="43.4918" lon="6.3288">
        <ele>189</ele>
        <time>2017-04-05T12:42:18Z</time>
      </trkpt>
      <trkpt lat="43.49171" lon="6.32879">
        <ele>188.2</ele>
        <time>2017-04-05T12:42:29Z</time>
      </trkpt>
      <trkpt lat="43.49162" lon="6.32877">
        <ele>187.9</ele>
        <time>2017-04-05T12:42:39Z</time>
      </trkpt>
      <trkpt lat="43.49153" lon="6.32874">
        <ele>187.8</ele>
        <time>2017-04-05T12:42:49Z</time>
      </trkpt>
      <trkpt lat="43.49144" lon="6.32871">
        <ele>187.6</ele>
        <time>2017-04-05T12:42:57Z</time>
      </trkpt>
      <trkpt lat="43.49135" lon="6.32868">
        <ele>187.1</ele>
        <time>2017-04-05T12:43:05Z</time>
      </trkpt>
      <trkpt lat="43.49126" lon="6.32865">
        <ele>186.5</ele>
        <time>2017-04-05T12:43:14Z</time>
      </trkpt>
      <trkpt lat="43.49116" lon="6.32862">
        <ele>186.6</ele>
        <time>2017-04-05T12:43:23Z</time>
      </trkpt>
      <trkpt lat="43.49107" lon="6.32861">
        <ele>186.3</ele>
        <time>2017-04-05T12:43:31Z</time>
      </trkpt>
      <trkpt lat="43.49097" lon="6.3286">
        <ele>186.4</ele>
        <time>2017-04-05T12:43:40Z</time>
      </trkpt>
      <trkpt lat="43.49088" lon="6.3286">
        <ele>186.8</ele>
        <time>2017-04-05T12:43:48Z</time>
      </trkpt>
      <trkpt lat="43.49079" lon="6.3286">
        <ele>186.8</ele>
        <time>2017-04-05T12:43:56Z</time>
      </trkpt>
      <trkpt lat="43.4907" lon="6.32861">
        <ele>186.7</ele>
        <time>2017-04-05T12:44:06Z</time>
      </trkpt>
      <trkpt lat="43.4906" lon="6.32863">
        <ele>187.2</ele>
        <time>2017-04-05T12:44:17Z</time>
      </trkpt>
      <trkpt lat="43.49051" lon="6.32866">
        <ele>187.7</ele>
        <time>2017-04-05T12:44:26Z</time>
      </trkpt>
      <trkpt lat="43.49042" lon="6.32867">
        <ele>188.2</ele>
        <time>2017-04-05T12:44:37Z</time>
      </trkpt>
      <trkpt lat="43.49032" lon="6.3287">
        <ele>189.1</ele>
        <time>2017-04-05T12:44:48Z</time>
      </trkpt>
      <trkpt lat="43.49023" lon="6.32873">
        <ele>189.4</ele>
        <time>2017-04-05T12:44:58Z</time>
      </trkpt>
      <trkpt lat="43.49014" lon="6.32876">
        <ele>190.1</ele>
        <time>2017-04-05T12:45:08Z</time>
      </trkpt>
      <trkpt lat="43.49004" lon="6.32877">
        <ele>190.7</ele>
        <time>2017-04-05T12:45:17Z</time>
      </trkpt>
      <trkpt lat="43.48995" lon="6.32879">
        <ele>191.4</ele>
        <time>2017-04-05T12:45:27Z</time>
      </trkpt>
      <trkpt lat="43.48985" lon="6.32881">
        <ele>191.7</ele>
        <time>2017-04-05T12:45:36Z</time>
      </trkpt>
      <trkpt lat="43.48976" lon="6.32885">
        <ele>191.8</ele>
        <time>2017-04-05T12:45:48Z</time>
      </trkpt>
      <trkpt lat="43.48967" lon="6.32889">
        <ele>191.6</ele>
        <time>2017-04-05T12:45:57Z</time>
      </trkpt>
      <trkpt lat="43.48957" lon="6.32892">
        <ele>191.3</ele>
        <time>2017-04-05T12:46:07Z</time>
      </trkpt>
      <trkpt lat="43.48948" lon="6.32894">
        <ele>190.9</ele>
        <time>2017-04-05T12:46:18Z</time>
      </trkpt>
      <trkpt lat="43.48938" lon="6.32896">
        <ele>190.2</ele>
        <time>2017-04-05T12:46:28Z</time>
      </trkpt>
      <trkpt lat="43.48929" lon="6.32897">
        <ele>189.5</ele>
        <time>2017-04-05T12:46:39Z</time>
      </trkpt>
      <trkpt lat="43.4892" lon="6.32896">
        <ele>189.2</ele>
        <time>2017-04-05T12:46:50Z</time>
      </trkpt>
      <trkpt lat="43.48911" lon="6.32892">
        <ele>188.6</ele>
        <time>2017-04-05T12:47:02Z</time>
      </trkpt>
      <trkpt lat="43.48902" lon="6.32895">
        <ele>188.7</ele>
        <time>2017-04-05T12:47:16Z</time>
      </trkpt>
      <trkpt lat="43.48892" lon="6.32895">
        <ele>188.5</ele>
        <time>2017-04-05T12:47:25Z</time>
      </trkpt>
      <trkpt lat="43.48883" lon="6.32893">
        <ele>189</ele>
        <time>2017-04-05T12:47:35Z</time>
      </trkpt>
      <trkpt lat="43.48873" lon="6.32893">
        <ele>189.4</ele>
        <time>2017-04-05T12:47:45Z</time>
      </trkpt>
      <trkpt lat="43.48863" lon="6.32891">
        <ele>190.4</ele>
        <time>2017-04-05T12:47:56Z</time>
      </trkpt>
      <trkpt lat="43.48854" lon="6.3289">
        <ele>191.4</ele>
        <time>2017-04-05T12:48:07Z</time>
      </trkpt>
      <trkpt lat="43.48845" lon="6.3289">
        <ele>192.7</ele>
        <time>2017-04-05T12:48:18Z</time>
      </trkpt>
      <trkpt lat="43.48835" lon="6.32888">
        <ele>193.7</ele>
        <time>2017-04-05T12:48:28Z</time>
      </trkpt>
      <trkpt lat="43.48826" lon="6.32888">
        <ele>194</ele>
        <time>2017-04-05T12:48:35Z</time>
      </trkpt>
      <trkpt lat="43.48817" lon="6.32884">
        <ele>194.1</ele>
        <time>2017-04-05T12:48:43Z</time>
      </trkpt>
      <trkpt lat="43.48808" lon="6.32881">
        <ele>194</ele>
        <time>2017-04-05T12:48:51Z</time>
      </trkpt>
      <trkpt lat="43.48798" lon="6.32879">
        <ele>193.6</ele>
        <time>2017-04-05T12:49:00Z</time>
      </trkpt>
      <trkpt lat="43.48789" lon="6.3288">
        <ele>193.3</ele>
        <time>2017-04-05T12:49:06Z</time>
      </trkpt>
      <trkpt lat="43.48779" lon="6.32876">
        <ele>193.3</ele>
        <time>2017-04-05T12:49:16Z</time>
      </trkpt>
      <trkpt lat="43.4877" lon="6.32875">
        <ele>193.1</ele>
        <time>2017-04-05T12:49:25Z</time>
      </trkpt>
      <trkpt lat="43.48761" lon="6.32871">
        <ele>193.1</ele>
        <time>2017-04-05T12:49:34Z</time>
      </trkpt>
      <trkpt lat="43.48752" lon="6.32869">
        <ele>192.8</ele>
        <time>2017-04-05T12:49:42Z</time>
      </trkpt>
      <trkpt lat="43.48743" lon="6.32864">
        <ele>192.4</ele>
        <time>2017-04-05T12:49:52Z</time>
      </trkpt>
      <trkpt lat="43.48733" lon="6.32861">
        <ele>191.9</ele>
        <time>2017-04-05T12:50:02Z</time>
      </trkpt>
      <trkpt lat="43.48725" lon="6.32857">
        <ele>190.7</ele>
        <time>2017-04-05T12:50:12Z</time>
      </trkpt>
      <trkpt lat="43.48717" lon="6.32851">
        <ele>190</ele>
        <time>2017-04-05T12:50:20Z</time>
      </trkpt>
      <trkpt lat="43.48707" lon="6.32847">
        <ele>189.3</ele>
        <time>2017-04-05T12:50:28Z</time>
      </trkpt>
      <trkpt lat="43.48698" lon="6.32845">
        <ele>188.7</ele>
        <time>2017-04-05T12:50:37Z</time>
      </trkpt>
      <trkpt lat="43.48689" lon="6.32844">
        <ele>188.2</ele>
        <time>2017-04-05T12:50:47Z</time>
      </trkpt>
      <trkpt lat="43.4868" lon="6.32846">
        <ele>187</ele>
        <time>2017-04-05T12:50:56Z</time>
      </trkpt>
      <trkpt lat="43.48671" lon="6.32849">
        <ele>186.2</ele>
        <time>2017-04-05T12:51:04Z</time>
      </trkpt>
      <trkpt lat="43.48662" lon="6.32853">
        <ele>185.7</ele>
        <time>2017-04-05T12:51:11Z</time>
      </trkpt>
      <trkpt lat="43.48652" lon="6.32858">
        <ele>184.5</ele>
        <time>2017-04-05T12:51:20Z</time>
      </trkpt>
      <trkpt lat="43.48643" lon="6.32862">
        <ele>183.3</ele>
        <time>2017-04-05T12:51:29Z</time>
      </trkpt>
      <trkpt lat="43.48633" lon="6.32867">
        <ele>181.9</ele>
        <time>2017-04-05T12:51:39Z</time>
      </trkpt>
      <trkpt lat="43.48624" lon="6.32871">
        <ele>181</ele>
        <time>2017-04-05T12:51:48Z</time>
      </trkpt>
      <trkpt lat="43.48616" lon="6.3288">
        <ele>179.8</ele>
        <time>2017-04-05T12:51:57Z</time>
      </trkpt>
      <trkpt lat="43.48609" lon="6.32889">
        <ele>178.4</ele>
        <time>2017-04-05T12:52:06Z</time>
      </trkpt>
      <trkpt lat="43.48602" lon="6.32897">
        <ele>177</ele>
        <time>2017-04-05T12:52:16Z</time>
      </trkpt>
      <trkpt lat="43.48597" lon="6.32907">
        <ele>175.7</ele>
        <time>2017-04-05T12:52:25Z</time>
      </trkpt>
      <trkpt lat="43.4859" lon="6.32916">
        <ele>174.4</ele>
        <time>2017-04-05T12:52:37Z</time>
      </trkpt>
      <trkpt lat="43.48581" lon="6.3292">
        <ele>174</ele>
        <time>2017-04-05T12:52:46Z</time>
      </trkpt>
      <trkpt lat="43.48572" lon="6.32926">
        <ele>173.6</ele>
        <time>2017-04-05T12:52:54Z</time>
      </trkpt>
      <trkpt lat="43.48564" lon="6.32934">
        <ele>173.5</ele>
        <time>2017-04-05T12:53:03Z</time>
      </trkpt>
      <trkpt lat="43.48557" lon="6.32942">
        <ele>173.4</ele>
        <time>2017-04-05T12:53:14Z</time>
      </trkpt>
      <trkpt lat="43.48549" lon="6.3295">
        <ele>173.8</ele>
        <time>2017-04-05T12:53:26Z</time>
      </trkpt>
      <trkpt lat="43.48541" lon="6.32957">
        <ele>173.9</ele>
        <time>2017-04-05T12:53:35Z</time>
      </trkpt>
      <trkpt lat="43.48533" lon="6.32964">
        <ele>174</ele>
        <time>2017-04-05T12:53:44Z</time>
      </trkpt>
      <trkpt lat="43.48526" lon="6.32971">
        <ele>174</ele>
        <time>2017-04-05T12:53:54Z</time>
      </trkpt>
      <trkpt lat="43.48517" lon="6.32977">
        <ele>174.2</ele>
        <time>2017-04-05T12:54:06Z</time>
      </trkpt>
      <trkpt lat="43.4851" lon="6.32983">
        <ele>174.8</ele>
        <time>2017-04-05T12:54:18Z</time>
      </trkpt>
      <trkpt lat="43.48501" lon="6.32989">
        <ele>175.7</ele>
        <time>2017-04-05T12:54:28Z</time>
      </trkpt>
      <trkpt lat="43.48493" lon="6.32994">
        <ele>176.1</ele>
        <time>2017-04-05T12:54:37Z</time>
      </trkpt>
      <trkpt lat="43.48484" lon="6.32998">
        <ele>177</ele>
        <time>2017-04-05T12:54:57Z</time>
      </trkpt>
      <trkpt lat="43.48476" lon="6.33005">
        <ele>177.1</ele>
        <time>2017-04-05T12:55:10Z</time>
      </trkpt>
      <trkpt lat="43.48468" lon="6.33008">
        <ele>177.9</ele>
        <time>2017-04-05T12:55:27Z</time>
      </trkpt>
      <trkpt lat="43.48459" lon="6.33012">
        <ele>177.6</ele>
        <time>2017-04-05T12:55:58Z</time>
      </trkpt>
      <trkpt lat="43.48449" lon="6.33013">
        <ele>176.9</ele>
        <time>2017-04-05T12:56:13Z</time>
      </trkpt>
      <trkpt lat="43.4844" lon="6.33013">
        <ele>176.3</ele>
        <time>2017-04-05T12:56:32Z</time>
      </trkpt>
      <trkpt lat="43.48438" lon="6.33026">
        <ele>175.8</ele>
        <time>2017-04-05T12:57:16Z</time>
      </trkpt>
      <trkpt lat="43.48436" lon="6.33039">
        <ele>175.4</ele>
        <time>2017-04-05T12:57:30Z</time>
      </trkpt>
      <trkpt lat="43.48435" lon="6.33052">
        <ele>174.7</ele>
        <time>2017-04-05T12:57:42Z</time>
      </trkpt>
      <trkpt lat="43.48427" lon="6.33058">
        <ele>173.8</ele>
        <time>2017-04-05T12:58:03Z</time>
      </trkpt>
      <trkpt lat="43.48426" lon="6.3307">
        <ele>172.9</ele>
        <time>2017-04-05T12:58:20Z</time>
      </trkpt>
      <trkpt lat="43.48428" lon="6.33082">
        <ele>172.9</ele>
        <time>2017-04-05T12:58:39Z</time>
      </trkpt>
      <trkpt lat="43.48421" lon="6.33091">
        <ele>172.8</ele>
        <time>2017-04-05T12:59:00Z</time>
      </trkpt>
      <trkpt lat="43.48426" lon="6.33102">
        <ele>173</ele>
        <time>2017-04-05T12:59:52Z</time>
      </trkpt>
      <trkpt lat="43.48435" lon="6.33101">
        <ele>172.7</ele>
        <time>2017-04-05T13:00:19Z</time>
      </trkpt>
      <trkpt lat="43.48444" lon="6.33101">
        <ele>172.9</ele>
        <time>2017-04-05T13:00:37Z</time>
      </trkpt>
      <trkpt lat="43.48454" lon="6.33102">
        <ele>172.9</ele>
        <time>2017-04-05T13:00:49Z</time>
      </trkpt>
      <trkpt lat="43.48444" lon="6.33104">
        <ele>172.8</ele>
        <time>2017-04-05T13:01:22Z</time>
      </trkpt>
      <trkpt lat="43.48435" lon="6.33105">
        <ele>172.8</ele>
        <time>2017-04-05T13:01:34Z</time>
      </trkpt>
      <trkpt lat="43.48428" lon="6.33112">
        <ele>172.7</ele>
        <time>2017-04-05T13:02:14Z</time>
      </trkpt>
      <trkpt lat="43.48429" lon="6.33126">
        <ele>172.2</ele>
        <time>2017-04-05T13:02:30Z</time>
      </trkpt>
      <trkpt lat="43.48431" lon="6.33139">
        <ele>172.1</ele>
        <time>2017-04-05T13:02:42Z</time>
      </trkpt>
      <trkpt lat="43.48434" lon="6.33151">
        <ele>171.6</ele>
        <time>2017-04-05T13:02:52Z</time>
      </trkpt>
      <trkpt lat="43.48437" lon="6.33163">
        <ele>171</ele>
        <time>2017-04-05T13:03:04Z</time>
      </trkpt>
      <trkpt lat="43.48439" lon="6.33176">
        <ele>169.9</ele>
        <time>2017-04-05T13:03:19Z</time>
      </trkpt>
      <trkpt lat="43.48442" lon="6.33188">
        <ele>169.6</ele>
        <time>2017-04-05T13:03:30Z</time>
      </trkpt>
      <trkpt lat="43.48446" lon="6.33199">
        <ele>169.4</ele>
        <time>2017-04-05T13:03:41Z</time>
      </trkpt>
      <trkpt lat="43.48452" lon="6.33209">
        <ele>168.6</ele>
        <time>2017-04-05T13:04:03Z</time>
      </trkpt>
      <trkpt lat="43.48458" lon="6.33219">
        <ele>166.5</ele>
        <time>2017-04-05T13:09:02Z</time>
      </trkpt>
      <trkpt lat="43.48459" lon="6.33232">
        <ele>166.1</ele>
        <time>2017-04-05T13:09:17Z</time>
      </trkpt>
      <trkpt lat="43.4846" lon="6.33246">
        <ele>165.1</ele>
        <time>2017-04-05T13:09:29Z</time>
      </trkpt>
      <trkpt lat="43.48461" lon="6.33258">
        <ele>164.1</ele>
        <time>2017-04-05T13:09:39Z</time>
      </trkpt>
      <trkpt lat="43.48463" lon="6.33271">
        <ele>163.5</ele>
        <time>2017-04-05T13:09:51Z</time>
      </trkpt>
      <trkpt lat="43.48464" lon="6.33284">
        <ele>162.2</ele>
        <time>2017-04-05T13:10:06Z</time>
      </trkpt>
      <trkpt lat="43.4846" lon="6.33296">
        <ele>161.3</ele>
        <time>2017-04-05T13:10:19Z</time>
      </trkpt>
      <trkpt lat="43.48456" lon="6.33308">
        <ele>160</ele>
        <time>2017-04-05T13:10:31Z</time>
      </trkpt>
      <trkpt lat="43.48455" lon="6.33322">
        <ele>159.3</ele>
        <time>2017-04-05T13:10:40Z</time>
      </trkpt>
      <trkpt lat="43.48459" lon="6.33333">
        <ele>157.4</ele>
        <time>2017-04-05T13:10:55Z</time>
      </trkpt>
      <trkpt lat="43.48469" lon="6.33333">
        <ele>155.9</ele>
        <time>2017-04-05T13:11:16Z</time>
      </trkpt>
      <trkpt lat="43.48475" lon="6.33343">
        <ele>155.3</ele>
        <time>2017-04-05T13:11:29Z</time>
      </trkpt>
      <trkpt lat="43.48481" lon="6.33352">
        <ele>154.7</ele>
        <time>2017-04-05T13:11:39Z</time>
      </trkpt>
      <trkpt lat="43.48487" lon="6.33363">
        <ele>154.5</ele>
        <time>2017-04-05T13:11:51Z</time>
      </trkpt>
      <trkpt lat="43.48488" lon="6.33375">
        <ele>154.1</ele>
        <time>2017-04-05T13:11:59Z</time>
      </trkpt>
      <trkpt lat="43.48489" lon="6.33388">
        <ele>153.7</ele>
        <time>2017-04-05T13:12:08Z</time>
      </trkpt>
      <trkpt lat="43.48487" lon="6.33401">
        <ele>153.4</ele>
        <time>2017-04-05T13:12:19Z</time>
      </trkpt>
      <trkpt lat="43.48486" lon="6.33413">
        <ele>153</ele>
        <time>2017-04-05T13:12:31Z</time>
      </trkpt>
      <trkpt lat="43.48484" lon="6.33426">
        <ele>152.6</ele>
        <time>2017-04-05T13:12:44Z</time>
      </trkpt>
      <trkpt lat="43.48483" lon="6.3344">
        <ele>153.4</ele>
        <time>2017-04-05T13:12:58Z</time>
      </trkpt>
      <trkpt lat="43.48484" lon="6.33453">
        <ele>154.1</ele>
        <time>2017-04-05T13:13:09Z</time>
      </trkpt>
      <trkpt lat="43.48484" lon="6.33465">
        <ele>154.4</ele>
        <time>2017-04-05T13:13:20Z</time>
      </trkpt>
      <trkpt lat="43.48483" lon="6.33478">
        <ele>154.7</ele>
        <time>2017-04-05T13:13:31Z</time>
      </trkpt>
      <trkpt lat="43.48484" lon="6.33491">
        <ele>154.4</ele>
        <time>2017-04-05T13:13:41Z</time>
      </trkpt>
      <trkpt lat="43.48487" lon="6.33504">
        <ele>153.4</ele>
        <time>2017-04-05T13:13:54Z</time>
      </trkpt>
      <trkpt lat="43.48492" lon="6.33514">
        <ele>152.3</ele>
        <time>2017-04-05T13:14:06Z</time>
      </trkpt>
      <trkpt lat="43.48499" lon="6.33525">
        <ele>151.3</ele>
        <time>2017-04-05T13:14:17Z</time>
      </trkpt>
      <trkpt lat="43.48503" lon="6.33537">
        <ele>150.5</ele>
        <time>2017-04-05T13:14:26Z</time>
      </trkpt>
      <trkpt lat="43.48508" lon="6.33548">
        <ele>149.8</ele>
        <time>2017-04-05T13:14:35Z</time>
      </trkpt>
      <trkpt lat="43.48514" lon="6.33559">
        <ele>150.1</ele>
        <time>2017-04-05T13:14:44Z</time>
      </trkpt>
      <trkpt lat="43.48518" lon="6.33572">
        <ele>149.5</ele>
        <time>2017-04-05T13:14:54Z</time>
      </trkpt>
      <trkpt lat="43.48522" lon="6.33583">
        <ele>149.2</ele>
        <time>2017-04-05T13:15:02Z</time>
      </trkpt>
      <trkpt lat="43.48527" lon="6.33593">
        <ele>149.3</ele>
        <time>2017-04-05T13:15:12Z</time>
      </trkpt>
      <trkpt lat="43.48533" lon="6.33605">
        <ele>149.4</ele>
        <time>2017-04-05T13:15:21Z</time>
      </trkpt>
      <trkpt lat="43.48537" lon="6.33616">
        <ele>149.9</ele>
        <time>2017-04-05T13:15:31Z</time>
      </trkpt>
      <trkpt lat="43.48543" lon="6.33625">
        <ele>150.1</ele>
        <time>2017-04-05T13:15:41Z</time>
      </trkpt>
      <trkpt lat="43.48551" lon="6.33631">
        <ele>150.2</ele>
        <time>2017-04-05T13:15:50Z</time>
      </trkpt>
      <trkpt lat="43.4856" lon="6.33638">
        <ele>149.8</ele>
        <time>2017-04-05T13:16:00Z</time>
      </trkpt>
      <trkpt lat="43.48568" lon="6.33645">
        <ele>148.8</ele>
        <time>2017-04-05T13:16:10Z</time>
      </trkpt>
      <trkpt lat="43.48575" lon="6.33653">
        <ele>148.1</ele>
        <time>2017-04-05T13:16:18Z</time>
      </trkpt>
      <trkpt lat="43.48584" lon="6.33661">
        <ele>147.3</ele>
        <time>2017-04-05T13:16:26Z</time>
      </trkpt>
      <trkpt lat="43.48591" lon="6.33668">
        <ele>146.7</ele>
        <time>2017-04-05T13:16:36Z</time>
      </trkpt>
      <trkpt lat="43.48598" lon="6.33677">
        <ele>145.8</ele>
        <time>2017-04-05T13:16:46Z</time>
      </trkpt>
      <trkpt lat="43.48605" lon="6.33686">
        <ele>145.2</ele>
        <time>2017-04-05T13:16:56Z</time>
      </trkpt>
      <trkpt lat="43.48607" lon="6.337">
        <ele>145</ele>
        <time>2017-04-05T13:17:05Z</time>
      </trkpt>
      <trkpt lat="43.48606" lon="6.33713">
        <ele>144.9</ele>
        <time>2017-04-05T13:17:14Z</time>
      </trkpt>
      <trkpt lat="43.48603" lon="6.33725">
        <ele>144.7</ele>
        <time>2017-04-05T13:17:24Z</time>
      </trkpt>
      <trkpt lat="43.48594" lon="6.33722">
        <ele>144.3</ele>
        <time>2017-04-05T13:17:38Z</time>
      </trkpt>
      <trkpt lat="43.48584" lon="6.33722">
        <ele>143.9</ele>
        <time>2017-04-05T13:17:47Z</time>
      </trkpt>
      <trkpt lat="43.48575" lon="6.33724">
        <ele>143.9</ele>
        <time>2017-04-05T13:17:56Z</time>
      </trkpt>
      <trkpt lat="43.48566" lon="6.33728">
        <ele>143.8</ele>
        <time>2017-04-05T13:18:05Z</time>
      </trkpt>
      <trkpt lat="43.48562" lon="6.3374">
        <ele>143.8</ele>
        <time>2017-04-05T13:18:13Z</time>
      </trkpt>
      <trkpt lat="43.48554" lon="6.33733">
        <ele>143.2</ele>
        <time>2017-04-05T13:19:09Z</time>
      </trkpt>
      <trkpt lat="43.48547" lon="6.33724">
        <ele>142.6</ele>
        <time>2017-04-05T13:19:35Z</time>
      </trkpt>
      <trkpt lat="43.48541" lon="6.33715">
        <ele>141.8</ele>
        <time>2017-04-05T13:19:48Z</time>
      </trkpt>
      <trkpt lat="43.48535" lon="6.33705">
        <ele>141.5</ele>
        <time>2017-04-05T13:20:01Z</time>
      </trkpt>
      <trkpt lat="43.48526" lon="6.337">
        <ele>141.2</ele>
        <time>2017-04-05T13:20:16Z</time>
      </trkpt>
      <trkpt lat="43.48518" lon="6.33695">
        <ele>140.8</ele>
        <time>2017-04-05T13:20:32Z</time>
      </trkpt>
      <trkpt lat="43.48509" lon="6.33693">
        <ele>140.5</ele>
        <time>2017-04-05T13:20:45Z</time>
      </trkpt>
      <trkpt lat="43.485" lon="6.33693">
        <ele>140.6</ele>
        <time>2017-04-05T13:21:02Z</time>
      </trkpt>
      <trkpt lat="43.48491" lon="6.33692">
        <ele>140.3</ele>
        <time>2017-04-05T13:21:18Z</time>
      </trkpt>
      <trkpt lat="43.48482" lon="6.33692">
        <ele>140.1</ele>
        <time>2017-04-05T13:21:34Z</time>
      </trkpt>
      <trkpt lat="43.48474" lon="6.33685">
        <ele>139</ele>
        <time>2017-04-05T13:22:12Z</time>
      </trkpt>
      <trkpt lat="43.48467" lon="6.33677">
        <ele>139.2</ele>
        <time>2017-04-05T13:22:24Z</time>
      </trkpt>
      <trkpt lat="43.48461" lon="6.33668">
        <ele>139.3</ele>
        <time>2017-04-05T13:22:36Z</time>
      </trkpt>
      <trkpt lat="43.48454" lon="6.33659">
        <ele>139</ele>
        <time>2017-04-05T13:22:48Z</time>
      </trkpt>
      <trkpt lat="43.48446" lon="6.33651">
        <ele>138.7</ele>
        <time>2017-04-05T13:22:58Z</time>
      </trkpt>
      <trkpt lat="43.48439" lon="6.33644">
        <ele>138.2</ele>
        <time>2017-04-05T13:23:07Z</time>
      </trkpt>
      <trkpt lat="43.48432" lon="6.33635">
        <ele>138.2</ele>
        <time>2017-04-05T13:23:18Z</time>
      </trkpt>
      <trkpt lat="43.48425" lon="6.33625">
        <ele>137.8</ele>
        <time>2017-04-05T13:23:27Z</time>
      </trkpt>
      <trkpt lat="43.48418" lon="6.33618">
        <ele>137.2</ele>
        <time>2017-04-05T13:23:35Z</time>
      </trkpt>
      <trkpt lat="43.4841" lon="6.33608">
        <ele>137.3</ele>
        <time>2017-04-05T13:23:43Z</time>
      </trkpt>
      <trkpt lat="43.48403" lon="6.33599">
        <ele>136.9</ele>
        <time>2017-04-05T13:23:50Z</time>
      </trkpt>
      <trkpt lat="43.48396" lon="6.3359">
        <ele>136.5</ele>
        <time>2017-04-05T13:23:57Z</time>
      </trkpt>
      <trkpt lat="43.48388" lon="6.33583">
        <ele>136.3</ele>
        <time>2017-04-05T13:24:04Z</time>
      </trkpt>
      <trkpt lat="43.48381" lon="6.33575">
        <ele>135.9</ele>
        <time>2017-04-05T13:24:11Z</time>
      </trkpt>
      <trkpt lat="43.48373" lon="6.33568">
        <ele>135.7</ele>
        <time>2017-04-05T13:24:19Z</time>
      </trkpt>
      <trkpt lat="43.48365" lon="6.3356">
        <ele>135.2</ele>
        <time>2017-04-05T13:24:28Z</time>
      </trkpt>
      <trkpt lat="43.48359" lon="6.3355">
        <ele>134.7</ele>
        <time>2017-04-05T13:24:38Z</time>
      </trkpt>
      <trkpt lat="43.48351" lon="6.33541">
        <ele>134.3</ele>
        <time>2017-04-05T13:24:48Z</time>
      </trkpt>
      <trkpt lat="43.48342" lon="6.33537">
        <ele>133.7</ele>
        <time>2017-04-05T13:24:56Z</time>
      </trkpt>
      <trkpt lat="43.48333" lon="6.33534">
        <ele>133.1</ele>
        <time>2017-04-05T13:25:04Z</time>
      </trkpt>
      <trkpt lat="43.48324" lon="6.33533">
        <ele>132.6</ele>
        <time>2017-04-05T13:25:13Z</time>
      </trkpt>
      <trkpt lat="43.48315" lon="6.33534">
        <ele>132.2</ele>
        <time>2017-04-05T13:25:21Z</time>
      </trkpt>
      <trkpt lat="43.48305" lon="6.33538">
        <ele>132</ele>
        <time>2017-04-05T13:25:34Z</time>
      </trkpt>
      <trkpt lat="43.48296" lon="6.33541">
        <ele>131.1</ele>
        <time>2017-04-05T13:25:45Z</time>
      </trkpt>
      <trkpt lat="43.48288" lon="6.33547">
        <ele>130.4</ele>
        <time>2017-04-05T13:25:56Z</time>
      </trkpt>
      <trkpt lat="43.4828" lon="6.33553">
        <ele>130.1</ele>
        <time>2017-04-05T13:26:03Z</time>
      </trkpt>
      <trkpt lat="43.48272" lon="6.33561">
        <ele>129.5</ele>
        <time>2017-04-05T13:26:11Z</time>
      </trkpt>
      <trkpt lat="43.48267" lon="6.33572">
        <ele>129.3</ele>
        <time>2017-04-05T13:26:19Z</time>
      </trkpt>
      <trkpt lat="43.48259" lon="6.3358">
        <ele>129.4</ele>
        <time>2017-04-05T13:26:26Z</time>
      </trkpt>
      <trkpt lat="43.48252" lon="6.33587">
        <ele>129.3</ele>
        <time>2017-04-05T13:26:33Z</time>
      </trkpt>
      <trkpt lat="43.48245" lon="6.33596">
        <ele>129.8</ele>
        <time>2017-04-05T13:26:44Z</time>
      </trkpt>
      <trkpt lat="43.48242" lon="6.33609">
        <ele>129.3</ele>
        <time>2017-04-05T13:26:57Z</time>
      </trkpt>
      <trkpt lat="43.48237" lon="6.3362">
        <ele>129.1</ele>
        <time>2017-04-05T13:27:07Z</time>
      </trkpt>
      <trkpt lat="43.48234" lon="6.33632">
        <ele>128.9</ele>
        <time>2017-04-05T13:27:15Z</time>
      </trkpt>
      <trkpt lat="43.4823" lon="6.33644">
        <ele>128.9</ele>
        <time>2017-04-05T13:27:25Z</time>
      </trkpt>
      <trkpt lat="43.48226" lon="6.33656">
        <ele>129.5</ele>
        <time>2017-04-05T13:27:34Z</time>
      </trkpt>
      <trkpt lat="43.48223" lon="6.33669">
        <ele>129.5</ele>
        <time>2017-04-05T13:27:43Z</time>
      </trkpt>
      <trkpt lat="43.48221" lon="6.33681">
        <ele>129.3</ele>
        <time>2017-04-05T13:27:52Z</time>
      </trkpt>
      <trkpt lat="43.4822" lon="6.33694">
        <ele>129.2</ele>
        <time>2017-04-05T13:28:04Z</time>
      </trkpt>
      <trkpt lat="43.48219" lon="6.33706">
        <ele>129.3</ele>
        <time>2017-04-05T13:28:18Z</time>
      </trkpt>
      <trkpt lat="43.48215" lon="6.33719">
        <ele>129.6</ele>
        <time>2017-04-05T13:28:28Z</time>
      </trkpt>
      <trkpt lat="43.48212" lon="6.33732">
        <ele>130</ele>
        <time>2017-04-05T13:28:37Z</time>
      </trkpt>
      <trkpt lat="43.48209" lon="6.33744">
        <ele>130.8</ele>
        <time>2017-04-05T13:28:50Z</time>
      </trkpt>
      <trkpt lat="43.48214" lon="6.33755">
        <ele>133.7</ele>
        <time>2017-04-05T13:29:22Z</time>
      </trkpt>
      <trkpt lat="43.48222" lon="6.33761">
        <ele>136.3</ele>
        <time>2017-04-05T13:29:44Z</time>
      </trkpt>
      <trkpt lat="43.4822" lon="6.33774">
        <ele>139.2</ele>
        <time>2017-04-05T13:30:07Z</time>
      </trkpt>
      <trkpt lat="43.48211" lon="6.33779">
        <ele>141</ele>
        <time>2017-04-05T13:30:26Z</time>
      </trkpt>
      <trkpt lat="43.48202" lon="6.33784">
        <ele>142.3</ele>
        <time>2017-04-05T13:30:38Z</time>
      </trkpt>
      <trkpt lat="43.48193" lon="6.33787">
        <ele>143.6</ele>
        <time>2017-04-05T13:30:51Z</time>
      </trkpt>
      <trkpt lat="43.48184" lon="6.33791">
        <ele>144.7</ele>
        <time>2017-04-05T13:31:04Z</time>
      </trkpt>
      <trkpt lat="43.48175" lon="6.33793">
        <ele>145.2</ele>
        <time>2017-04-05T13:31:14Z</time>
      </trkpt>
      <trkpt lat="43.48166" lon="6.33793">
        <ele>146.4</ele>
        <time>2017-04-05T13:31:31Z</time>
      </trkpt>
      <trkpt lat="43.48157" lon="6.33791">
        <ele>147.6</ele>
        <time>2017-04-05T13:32:06Z</time>
      </trkpt>
      <trkpt lat="43.48149" lon="6.33797">
        <ele>148</ele>
        <time>2017-04-05T13:32:28Z</time>
      </trkpt>
      <trkpt lat="43.4814" lon="6.33798">
        <ele>147.7</ele>
        <time>2017-04-05T13:32:42Z</time>
      </trkpt>
      <trkpt lat="43.4813" lon="6.33799">
        <ele>148</ele>
        <time>2017-04-05T13:33:00Z</time>
      </trkpt>
      <trkpt lat="43.48121" lon="6.33798">
        <ele>148.3</ele>
        <time>2017-04-05T13:33:12Z</time>
      </trkpt>
      <trkpt lat="43.48112" lon="6.33798">
        <ele>148.9</ele>
        <time>2017-04-05T13:33:22Z</time>
      </trkpt>
      <trkpt lat="43.48103" lon="6.33797">
        <ele>150.5</ele>
        <time>2017-04-05T13:33:36Z</time>
      </trkpt>
      <trkpt lat="43.48094" lon="6.338">
        <ele>152.2</ele>
        <time>2017-04-05T13:33:56Z</time>
      </trkpt>
      <trkpt lat="43.48086" lon="6.33808">
        <ele>153.5</ele>
        <time>2017-04-05T13:34:11Z</time>
      </trkpt>
      <trkpt lat="43.48079" lon="6.33817">
        <ele>155.7</ele>
        <time>2017-04-05T13:34:23Z</time>
      </trkpt>
      <trkpt lat="43.48072" lon="6.33823">
        <ele>157.8</ele>
        <time>2017-04-05T13:34:37Z</time>
      </trkpt>
      <trkpt lat="43.48065" lon="6.33833">
        <ele>158.7</ele>
        <time>2017-04-05T13:34:49Z</time>
      </trkpt>
      <trkpt lat="43.48057" lon="6.33841">
        <ele>159.7</ele>
        <time>2017-04-05T13:34:57Z</time>
      </trkpt>
      <trkpt lat="43.48052" lon="6.33853">
        <ele>160.1</ele>
        <time>2017-04-05T13:35:04Z</time>
      </trkpt>
      <trkpt lat="43.48047" lon="6.33863">
        <ele>160.5</ele>
        <time>2017-04-05T13:35:10Z</time>
      </trkpt>
      <trkpt lat="43.48042" lon="6.33873">
        <ele>160.6</ele>
        <time>2017-04-05T13:35:21Z</time>
      </trkpt>
      <trkpt lat="43.48038" lon="6.33861">
        <ele>159.3</ele>
        <time>2017-04-05T13:35:46Z</time>
      </trkpt>
      <trkpt lat="43.48031" lon="6.33853">
        <ele>158.4</ele>
        <time>2017-04-05T13:36:00Z</time>
      </trkpt>
      <trkpt lat="43.48027" lon="6.3384">
        <ele>157.6</ele>
        <time>2017-04-05T13:36:11Z</time>
      </trkpt>
      <trkpt lat="43.48022" lon="6.3383">
        <ele>157.2</ele>
        <time>2017-04-05T13:36:20Z</time>
      </trkpt>
      <trkpt lat="43.48021" lon="6.33817">
        <ele>156.9</ele>
        <time>2017-04-05T13:36:33Z</time>
      </trkpt>
      <trkpt lat="43.48017" lon="6.33805">
        <ele>156.9</ele>
        <time>2017-04-05T13:36:45Z</time>
      </trkpt>
      <trkpt lat="43.48014" lon="6.33792">
        <ele>156.8</ele>
        <time>2017-04-05T13:36:58Z</time>
      </trkpt>
      <trkpt lat="43.48012" lon="6.33779">
        <ele>156.6</ele>
        <time>2017-04-05T13:37:11Z</time>
      </trkpt>
      <trkpt lat="43.48004" lon="6.33774">
        <ele>157.2</ele>
        <time>2017-04-05T13:37:18Z</time>
      </trkpt>
      <trkpt lat="43.47995" lon="6.33776">
        <ele>160</ele>
        <time>2017-04-05T13:37:43Z</time>
      </trkpt>
      <trkpt lat="43.47987" lon="6.33784">
        <ele>161.8</ele>
        <time>2017-04-05T13:38:00Z</time>
      </trkpt>
      <trkpt lat="43.4798" lon="6.33791">
        <ele>164.3</ele>
        <time>2017-04-05T13:38:18Z</time>
      </trkpt>
      <trkpt lat="43.47971" lon="6.33794">
        <ele>166.7</ele>
        <time>2017-04-05T13:39:02Z</time>
      </trkpt>
      <trkpt lat="43.47963" lon="6.33799">
        <ele>167.8</ele>
        <time>2017-04-05T13:41:23Z</time>
      </trkpt>
      <trkpt lat="43.47953" lon="6.33799">
        <ele>167.4</ele>
        <time>2017-04-05T13:41:41Z</time>
      </trkpt>
      <trkpt lat="43.47944" lon="6.33803">
        <ele>167.6</ele>
        <time>2017-04-05T13:41:50Z</time>
      </trkpt>
      <trkpt lat="43.47936" lon="6.33806">
        <ele>167.8</ele>
        <time>2017-04-05T13:41:59Z</time>
      </trkpt>
      <trkpt lat="43.47926" lon="6.33808">
        <ele>168.3</ele>
        <time>2017-04-05T13:42:07Z</time>
      </trkpt>
      <trkpt lat="43.47916" lon="6.3381">
        <ele>168</ele>
        <time>2017-04-05T13:42:16Z</time>
      </trkpt>
      <trkpt lat="43.47908" lon="6.33814">
        <ele>168</ele>
        <time>2017-04-05T13:42:25Z</time>
      </trkpt>
      <trkpt lat="43.47902" lon="6.33824">
        <ele>168.3</ele>
        <time>2017-04-05T13:42:33Z</time>
      </trkpt>
      <trkpt lat="43.47899" lon="6.33835">
        <ele>169.1</ele>
        <time>2017-04-05T13:42:42Z</time>
      </trkpt>
      <trkpt lat="43.47897" lon="6.33848">
        <ele>170.3</ele>
        <time>2017-04-05T13:42:52Z</time>
      </trkpt>
      <trkpt lat="43.47905" lon="6.33852">
        <ele>174.4</ele>
        <time>2017-04-05T13:43:20Z</time>
      </trkpt>
      <trkpt lat="43.47915" lon="6.3385">
        <ele>175.5</ele>
        <time>2017-04-05T13:43:31Z</time>
      </trkpt>
      <trkpt lat="43.47925" lon="6.33848">
        <ele>175.9</ele>
        <time>2017-04-05T13:43:41Z</time>
      </trkpt>
      <trkpt lat="43.47933" lon="6.33852">
        <ele>176.2</ele>
        <time>2017-04-05T13:43:52Z</time>
      </trkpt>
      <trkpt lat="43.47942" lon="6.33854">
        <ele>176.9</ele>
        <time>2017-04-05T13:44:03Z</time>
      </trkpt>
      <trkpt lat="43.47951" lon="6.3386">
        <ele>177.4</ele>
        <time>2017-04-05T13:44:13Z</time>
      </trkpt>
      <trkpt lat="43.47952" lon="6.33872">
        <ele>178</ele>
        <time>2017-04-05T13:44:26Z</time>
      </trkpt>
      <trkpt lat="43.47955" lon="6.33884">
        <ele>179.6</ele>
        <time>2017-04-05T13:44:39Z</time>
      </trkpt>
      <trkpt lat="43.47957" lon="6.33897">
        <ele>181</ele>
        <time>2017-04-05T13:45:00Z</time>
      </trkpt>
      <trkpt lat="43.47952" lon="6.33908">
        <ele>182.1</ele>
        <time>2017-04-05T13:45:15Z</time>
      </trkpt>
      <trkpt lat="43.47945" lon="6.33915">
        <ele>182.9</ele>
        <time>2017-04-05T13:45:26Z</time>
      </trkpt>
      <trkpt lat="43.4794" lon="6.33926">
        <ele>184.2</ele>
        <time>2017-04-05T13:45:40Z</time>
      </trkpt>
      <trkpt lat="43.47939" lon="6.33938">
        <ele>185.7</ele>
        <time>2017-04-05T13:45:56Z</time>
      </trkpt>
      <trkpt lat="43.47934" lon="6.33949">
        <ele>187</ele>
        <time>2017-04-05T13:46:20Z</time>
      </trkpt>
      <trkpt lat="43.47943" lon="6.3395">
        <ele>188.2</ele>
        <time>2017-04-05T13:47:16Z</time>
      </trkpt>
      <trkpt lat="43.47936" lon="6.33956">
        <ele>188.1</ele>
        <time>2017-04-05T13:47:59Z</time>
      </trkpt>
      <trkpt lat="43.47929" lon="6.33964">
        <ele>188.5</ele>
        <time>2017-04-05T13:48:15Z</time>
      </trkpt>
      <trkpt lat="43.47935" lon="6.33975">
        <ele>190.1</ele>
        <time>2017-04-05T13:48:41Z</time>
      </trkpt>
      <trkpt lat="43.47941" lon="6.33984">
        <ele>190.9</ele>
        <time>2017-04-05T13:48:54Z</time>
      </trkpt>
      <trkpt lat="43.47948" lon="6.33993">
        <ele>191.8</ele>
        <time>2017-04-05T13:49:06Z</time>
      </trkpt>
      <trkpt lat="43.47954" lon="6.34003">
        <ele>192.7</ele>
        <time>2017-04-05T13:49:20Z</time>
      </trkpt>
      <trkpt lat="43.47959" lon="6.34014">
        <ele>193.3</ele>
        <time>2017-04-05T13:49:32Z</time>
      </trkpt>
      <trkpt lat="43.47964" lon="6.34026">
        <ele>194.2</ele>
        <time>2017-04-05T13:49:45Z</time>
      </trkpt>
      <trkpt lat="43.47969" lon="6.34038">
        <ele>194.7</ele>
        <time>2017-04-05T13:49:55Z</time>
      </trkpt>
      <trkpt lat="43.47973" lon="6.34049">
        <ele>195.6</ele>
        <time>2017-04-05T13:50:07Z</time>
      </trkpt>
      <trkpt lat="43.4798" lon="6.34058">
        <ele>196.5</ele>
        <time>2017-04-05T13:50:19Z</time>
      </trkpt>
      <trkpt lat="43.47987" lon="6.34066">
        <ele>197</ele>
        <time>2017-04-05T13:50:31Z</time>
      </trkpt>
      <trkpt lat="43.47993" lon="6.34075">
        <ele>198</ele>
        <time>2017-04-05T13:50:43Z</time>
      </trkpt>
      <trkpt lat="43.48001" lon="6.34083">
        <ele>198.8</ele>
        <time>2017-04-05T13:50:56Z</time>
      </trkpt>
      <trkpt lat="43.48009" lon="6.3409">
        <ele>199.5</ele>
        <time>2017-04-05T13:51:07Z</time>
      </trkpt>
      <trkpt lat="43.48016" lon="6.34098">
        <ele>199.6</ele>
        <time>2017-04-05T13:51:15Z</time>
      </trkpt>
      <trkpt lat="43.48023" lon="6.34106">
        <ele>199.9</ele>
        <time>2017-04-05T13:51:23Z</time>
      </trkpt>
      <trkpt lat="43.48031" lon="6.34114">
        <ele>199.9</ele>
        <time>2017-04-05T13:51:31Z</time>
      </trkpt>
      <trkpt lat="43.48036" lon="6.34124">
        <ele>199.4</ele>
        <time>2017-04-05T13:51:40Z</time>
      </trkpt>
      <trkpt lat="43.48042" lon="6.34134">
        <ele>198.1</ele>
        <time>2017-04-05T13:51:52Z</time>
      </trkpt>
      <trkpt lat="43.48046" lon="6.34146">
        <ele>196.8</ele>
        <time>2017-04-05T13:52:00Z</time>
      </trkpt>
      <trkpt lat="43.4805" lon="6.34158">
        <ele>195.8</ele>
        <time>2017-04-05T13:52:10Z</time>
      </trkpt>
      <trkpt lat="43.48058" lon="6.34165">
        <ele>194.4</ele>
        <time>2017-04-05T13:52:22Z</time>
      </trkpt>
      <trkpt lat="43.48066" lon="6.3416">
        <ele>192.2</ele>
        <time>2017-04-05T13:52:43Z</time>
      </trkpt>
      <trkpt lat="43.48075" lon="6.34163">
        <ele>190.1</ele>
        <time>2017-04-05T13:52:59Z</time>
      </trkpt>
      <trkpt lat="43.48085" lon="6.34165">
        <ele>188.9</ele>
        <time>2017-04-05T13:53:09Z</time>
      </trkpt>
      <trkpt lat="43.48094" lon="6.34167">
        <ele>186.5</ele>
        <time>2017-04-05T13:53:22Z</time>
      </trkpt>
      <trkpt lat="43.48104" lon="6.34171">
        <ele>184.4</ele>
        <time>2017-04-05T13:53:35Z</time>
      </trkpt>
      <trkpt lat="43.48112" lon="6.34176">
        <ele>183.2</ele>
        <time>2017-04-05T13:53:44Z</time>
      </trkpt>
      <trkpt lat="43.48119" lon="6.34185">
        <ele>182.2</ele>
        <time>2017-04-05T13:53:52Z</time>
      </trkpt>
      <trkpt lat="43.48125" lon="6.34194">
        <ele>181.4</ele>
        <time>2017-04-05T13:54:02Z</time>
      </trkpt>
      <trkpt lat="43.48131" lon="6.34204">
        <ele>181</ele>
        <time>2017-04-05T13:54:08Z</time>
      </trkpt>
      <trkpt lat="43.48138" lon="6.34214">
        <ele>179.4</ele>
        <time>2017-04-05T13:54:17Z</time>
      </trkpt>
      <trkpt lat="43.48144" lon="6.34223">
        <ele>178.5</ele>
        <time>2017-04-05T13:54:29Z</time>
      </trkpt>
      <trkpt lat="43.48151" lon="6.34232">
        <ele>176.8</ele>
        <time>2017-04-05T13:54:43Z</time>
      </trkpt>
      <trkpt lat="43.48157" lon="6.34242">
        <ele>175.2</ele>
        <time>2017-04-05T13:54:54Z</time>
      </trkpt>
      <trkpt lat="43.48165" lon="6.3425">
        <ele>173</ele>
        <time>2017-04-05T13:55:11Z</time>
      </trkpt>
      <trkpt lat="43.48173" lon="6.34258">
        <ele>171.6</ele>
        <time>2017-04-05T13:55:22Z</time>
      </trkpt>
      <trkpt lat="43.48179" lon="6.34269">
        <ele>169.4</ele>
        <time>2017-04-05T13:55:31Z</time>
      </trkpt>
      <trkpt lat="43.48184" lon="6.34278">
        <ele>168</ele>
        <time>2017-04-05T13:55:39Z</time>
      </trkpt>
      <trkpt lat="43.48192" lon="6.34285">
        <ele>166.7</ele>
        <time>2017-04-05T13:55:47Z</time>
      </trkpt>
      <trkpt lat="43.48199" lon="6.34295">
        <ele>165.5</ele>
        <time>2017-04-05T13:55:56Z</time>
      </trkpt>
      <trkpt lat="43.48205" lon="6.34304">
        <ele>164.1</ele>
        <time>2017-04-05T13:56:07Z</time>
      </trkpt>
      <trkpt lat="43.48213" lon="6.34313">
        <ele>162.9</ele>
        <time>2017-04-05T13:56:17Z</time>
      </trkpt>
      <trkpt lat="43.48219" lon="6.34322">
        <ele>161.3</ele>
        <time>2017-04-05T13:56:27Z</time>
      </trkpt>
      <trkpt lat="43.48228" lon="6.34328">
        <ele>159.5</ele>
        <time>2017-04-05T13:56:43Z</time>
      </trkpt>
      <trkpt lat="43.48237" lon="6.34328">
        <ele>158.9</ele>
        <time>2017-04-05T13:57:07Z</time>
      </trkpt>
      <trkpt lat="43.48244" lon="6.34321">
        <ele>158.9</ele>
        <time>2017-04-05T13:57:31Z</time>
      </trkpt>
      <trkpt lat="43.48252" lon="6.34328">
        <ele>158.3</ele>
        <time>2017-04-05T14:04:01Z</time>
      </trkpt>
      <trkpt lat="43.48249" lon="6.34316">
        <ele>158.7</ele>
        <time>2017-04-05T14:04:41Z</time>
      </trkpt>
      <trkpt lat="43.48243" lon="6.34306">
        <ele>159</ele>
        <time>2017-04-05T14:05:03Z</time>
      </trkpt>
      <trkpt lat="43.4825" lon="6.34314">
        <ele>159</ele>
        <time>2017-04-05T14:05:40Z</time>
      </trkpt>
      <trkpt lat="43.48247" lon="6.34302">
        <ele>158.7</ele>
        <time>2017-04-05T14:06:07Z</time>
      </trkpt>
      <trkpt lat="43.48254" lon="6.3431">
        <ele>158.7</ele>
        <time>2017-04-05T14:07:12Z</time>
      </trkpt>
      <trkpt lat="43.48245" lon="6.34305">
        <ele>157.8</ele>
        <time>2017-04-05T14:08:48Z</time>
      </trkpt>
      <trkpt lat="43.4825" lon="6.34317">
        <ele>158.4</ele>
        <time>2017-04-05T14:13:23Z</time>
      </trkpt>
      <trkpt lat="43.48243" lon="6.34308">
        <ele>157.6</ele>
        <time>2017-04-05T14:15:45Z</time>
      </trkpt>
      <trkpt lat="43.4825" lon="6.34316">
        <ele>157.3</ele>
        <time>2017-04-05T14:16:07Z</time>
      </trkpt>
      <trkpt lat="43.48256" lon="6.34326">
        <ele>157.5</ele>
        <time>2017-04-05T14:17:32Z</time>
      </trkpt>
      <trkpt lat="43.48247" lon="6.34328">
        <ele>157.7</ele>
        <time>2017-04-05T14:17:56Z</time>
      </trkpt>
      <trkpt lat="43.48241" lon="6.34338">
        <ele>157.4</ele>
        <time>2017-04-05T14:18:09Z</time>
      </trkpt>
      <trkpt lat="43.4824" lon="6.34351">
        <ele>156.4</ele>
        <time>2017-04-05T14:18:26Z</time>
      </trkpt>
      <trkpt lat="43.4824" lon="6.34364">
        <ele>155.7</ele>
        <time>2017-04-05T14:18:36Z</time>
      </trkpt>
      <trkpt lat="43.4824" lon="6.34377">
        <ele>155.6</ele>
        <time>2017-04-05T14:18:44Z</time>
      </trkpt>
      <trkpt lat="43.48236" lon="6.34388">
        <ele>155.1</ele>
        <time>2017-04-05T14:18:51Z</time>
      </trkpt>
      <trkpt lat="43.48231" lon="6.34399">
        <ele>154.5</ele>
        <time>2017-04-05T14:18:59Z</time>
      </trkpt>
      <trkpt lat="43.48227" lon="6.34411">
        <ele>154</ele>
        <time>2017-04-05T14:19:07Z</time>
      </trkpt>
      <trkpt lat="43.48224" lon="6.34424">
        <ele>153.9</ele>
        <time>2017-04-05T14:19:15Z</time>
      </trkpt>
      <trkpt lat="43.48224" lon="6.34436">
        <ele>153.1</ele>
        <time>2017-04-05T14:19:28Z</time>
      </trkpt>
      <trkpt lat="43.48222" lon="6.34446">
        <ele>152.2</ele>
        <time>2017-04-05T14:20:13Z</time>
      </trkpt>
    </trkseg>
  </trk>
</gpx>